sensor_id;sensor_type;location;lat;lon;timestamp;pressure;altitude;pressure_sealevel;temperature;humidity
37856;BME280;23694;43.274;26.924;2023-07-16T00:00:10;99112.81;;;23.29;68.43
37856;BME280;23694;43.274;26.924;2023-07-16T00:02:37;99118.44;;;23.34;68.26
37856;BME280;23694;43.274;26.924;2023-07-16T00:05:04;99121.06;;;23.20;67.85
37856;BME280;23694;43.274;26.924;2023-07-16T00:07:30;99116.31;;;23.30;66.39
37856;BME280;23694;43.274;26.924;2023-07-16T00:09:56;99114.13;;;23.48;66.42
37856;BME280;23694;43.274;26.924;2023-07-16T00:12:22;99114.09;;;23.56;64.72
37856;BME280;23694;43.274;26.924;2023-07-16T00:14:48;99104.69;;;23.60;62.00
37856;BME280;23694;43.274;26.924;2023-07-16T00:17:15;99104.69;;;23.60;61.28
37856;BME280;23694;43.274;26.924;2023-07-16T00:19:41;99106.44;;;23.68;60.35
37856;BME280;23694;43.274;26.924;2023-07-16T00:22:07;99102.47;;;23.64;59.90
37856;BME280;23694;43.274;26.924;2023-07-16T00:24:33;99106.16;;;23.63;59.70
37856;BME280;23694;43.274;26.924;2023-07-16T00:26:59;99102.00;;;23.60;59.16
37856;BME280;23694;43.274;26.924;2023-07-16T00:29:25;99103.75;;;23.68;58.88
37856;BME280;23694;43.274;26.924;2023-07-16T00:31:51;99098.78;;;23.65;58.83
37856;BME280;23694;43.274;26.924;2023-07-16T00:34:17;99101.28;;;23.66;58.64
37856;BME280;23694;43.274;26.924;2023-07-16T00:36:43;99102.38;;;23.57;58.65
37856;BME280;23694;43.274;26.924;2023-07-16T00:39:09;99090.50;;;23.37;59.05
37856;BME280;23694;43.274;26.924;2023-07-16T00:41:36;99091.97;;;23.39;59.35
37856;BME280;23694;43.274;26.924;2023-07-16T00:44:02;99087.56;;;23.32;59.24
37856;BME280;23694;43.274;26.924;2023-07-16T00:46:28;99084.69;;;23.33;59.31
37856;BME280;23694;43.274;26.924;2023-07-16T00:48:54;99092.81;;;23.40;59.33
37856;BME280;23694;43.274;26.924;2023-07-16T00:51:21;99083.44;;;23.44;58.96
37856;BME280;23694;43.274;26.924;2023-07-16T00:53:49;99081.84;;;23.35;58.98
37856;BME280;23694;43.274;26.924;2023-07-16T00:56:16;99092.53;;;23.35;58.98
37856;BME280;23694;43.274;26.924;2023-07-16T00:58:45;99074.00;;;23.19;59.28
37856;BME280;23694;43.274;26.924;2023-07-16T01:01:12;99074.81;;;23.19;59.39
37856;BME280;23694;43.274;26.924;2023-07-16T01:03:38;99073.59;;;23.07;60.16
37856;BME280;23694;43.274;26.924;2023-07-16T01:11:35;99068.53;;;23.12;60.19
37856;BME280;23694;43.274;26.924;2023-07-16T01:14:03;99069.81;;;23.01;60.31
37856;BME280;23694;43.274;26.924;2023-07-16T01:16:29;99063.56;;;23.09;60.45
37856;BME280;23694;43.274;26.924;2023-07-16T01:18:55;99063.84;;;23.14;59.98
37856;BME280;23694;43.274;26.924;2023-07-16T01:21:23;99072.69;;;23.15;60.13
37856;BME280;23694;43.274;26.924;2023-07-16T01:30:03;99062.94;;;23.22;59.15
37856;BME280;23694;43.274;26.924;2023-07-16T01:32:33;99060.63;;;23.19;59.47
37856;BME280;23694;43.274;26.924;2023-07-16T01:35:00;99057.31;;;23.17;59.53
37856;BME280;23694;43.274;26.924;2023-07-16T01:37:27;99061.38;;;23.13;59.98
37856;BME280;23694;43.274;26.924;2023-07-16T01:39:53;99065.88;;;23.12;59.98
37856;BME280;23694;43.274;26.924;2023-07-16T01:42:19;99056.66;;;23.15;59.88
37856;BME280;23694;43.274;26.924;2023-07-16T01:44:46;99048.56;;;23.08;60.00
37856;BME280;23694;43.274;26.924;2023-07-16T01:47:18;99052.78;;;23.02;60.08
37856;BME280;23694;43.274;26.924;2023-07-16T01:49:47;99069.47;;;23.04;59.94
37856;BME280;23694;43.274;26.924;2023-07-16T01:52:14;99063.81;;;22.99;60.24
37856;BME280;23694;43.274;26.924;2023-07-16T01:54:40;99062.91;;;22.92;60.61
37856;BME280;23694;43.274;26.924;2023-07-16T01:57:06;99065.94;;;22.89;60.80
37856;BME280;23694;43.274;26.924;2023-07-16T01:59:32;99062.59;;;22.87;61.27
37856;BME280;23694;43.274;26.924;2023-07-16T02:01:58;99068.34;;;22.99;61.15
37856;BME280;23694;43.274;26.924;2023-07-16T02:04:24;99063.81;;;22.99;61.33
37856;BME280;23694;43.274;26.924;2023-07-16T02:06:50;99079.56;;;22.94;62.04
37856;BME280;23694;43.274;26.924;2023-07-16T02:09:16;99071.44;;;22.88;62.41
37856;BME280;23694;43.274;26.924;2023-07-16T02:11:42;99069.19;;;22.76;61.79
37856;BME280;23694;43.274;26.924;2023-07-16T02:14:09;99083.34;;;22.77;61.36
37856;BME280;23694;43.274;26.924;2023-07-16T02:16:35;99074.66;;;22.75;61.37
37856;BME280;23694;43.274;26.924;2023-07-16T02:19:01;99070.16;;;22.75;61.31
37856;BME280;23694;43.274;26.924;2023-07-16T02:21:27;99071.66;;;22.78;61.45
37856;BME280;23694;43.274;26.924;2023-07-16T02:23:53;99070.84;;;22.77;61.62
37856;BME280;23694;43.274;26.924;2023-07-16T02:26:19;99069.03;;;22.70;62.11
37856;BME280;23694;43.274;26.924;2023-07-16T02:28:45;99060.00;;;22.71;61.59
37856;BME280;23694;43.274;26.924;2023-07-16T02:31:11;99058.41;;;22.62;61.92
37856;BME280;23694;43.274;26.924;2023-07-16T02:33:37;99064.94;;;22.59;61.91
37856;BME280;23694;43.274;26.924;2023-07-16T02:36:03;99066.59;;;22.37;62.47
37856;BME280;23694;43.274;26.924;2023-07-16T02:38:30;99053.22;;;22.45;62.33
37856;BME280;23694;43.274;26.924;2023-07-16T02:40:56;99062.16;;;22.53;61.94
37856;BME280;23694;43.274;26.924;2023-07-16T02:43:22;99055.16;;;22.52;61.59
37856;BME280;23694;43.274;26.924;2023-07-16T02:45:48;99060.50;;;22.52;61.82
37856;BME280;23694;43.274;26.924;2023-07-16T02:48:14;99056.34;;;22.49;61.82
37856;BME280;23694;43.274;26.924;2023-07-16T02:50:40;99070.34;;;22.51;61.52
37856;BME280;23694;43.274;26.924;2023-07-16T02:53:07;99070.88;;;22.46;61.45
37856;BME280;23694;43.274;26.924;2023-07-16T02:55:34;99068.84;;;22.49;61.60
37856;BME280;23694;43.274;26.924;2023-07-16T02:58:01;99065.66;;;22.53;61.55
37856;BME280;23694;43.274;26.924;2023-07-16T03:00:31;99059.59;;;22.59;61.27
37856;BME280;23694;43.274;26.924;2023-07-16T03:02:57;99056.09;;;22.59;61.13
37856;BME280;23694;43.274;26.924;2023-07-16T03:05:27;99070.75;;;22.63;61.00
37856;BME280;23694;43.274;26.924;2023-07-16T03:07:53;99069.50;;;22.82;60.16
37856;BME280;23694;43.274;26.924;2023-07-16T03:10:23;99069.81;;;23.01;59.50
37856;BME280;23694;43.274;26.924;2023-07-16T03:12:49;99062.38;;;23.26;58.23
37856;BME280;23694;43.274;26.924;2023-07-16T03:15:15;99064.63;;;23.52;57.27
37856;BME280;23694;43.274;26.924;2023-07-16T03:17:41;99066.03;;;23.78;56.63
37856;BME280;23694;43.274;26.924;2023-07-16T03:20:07;99073.03;;;24.08;55.04
37856;BME280;23694;43.274;26.924;2023-07-16T03:22:34;99064.47;;;24.34;53.68
37856;BME280;23694;43.274;26.924;2023-07-16T03:25:00;99069.47;;;24.58;52.76
37856;BME280;23694;43.274;26.924;2023-07-16T03:27:26;99077.13;;;24.83;51.94
37856;BME280;23694;43.274;26.924;2023-07-16T03:29:52;99074.63;;;25.03;51.44
37856;BME280;23694;43.274;26.924;2023-07-16T03:32:18;99072.50;;;25.19;50.23
37856;BME280;23694;43.274;26.924;2023-07-16T03:34:44;99068.53;;;25.37;49.87
37856;BME280;23694;43.274;26.924;2023-07-16T03:37:10;99068.72;;;25.70;48.85
37856;BME280;23694;43.274;26.924;2023-07-16T03:39:36;99082.31;;;26.03;48.71
37856;BME280;23694;43.274;26.924;2023-07-16T03:42:03;99075.19;;;26.30;48.34
37856;BME280;23694;43.274;26.924;2023-07-16T03:44:29;99074.84;;;26.52;48.93
37856;BME280;23694;43.274;26.924;2023-07-16T03:46:55;99076.53;;;26.67;49.90
37856;BME280;23694;43.274;26.924;2023-07-16T03:49:21;99077.59;;;26.85;48.63
37856;BME280;23694;43.274;26.924;2023-07-16T03:51:47;99074.94;;;27.12;45.24
37856;BME280;23694;43.274;26.924;2023-07-16T03:54:13;99066.63;;;27.46;43.65
37856;BME280;23694;43.274;26.924;2023-07-16T03:56:39;99069.06;;;27.74;42.71
37856;BME280;23694;43.274;26.924;2023-07-16T03:59:06;99081.97;;;28.17;41.99
37856;BME280;23694;43.274;26.924;2023-07-16T04:01:32;99084.28;;;28.52;41.23
37856;BME280;23694;43.274;26.924;2023-07-16T04:03:58;99081.69;;;29.01;40.96
37856;BME280;23694;43.274;26.924;2023-07-16T04:06:24;99081.91;;;29.50;42.03
37856;BME280;23694;43.274;26.924;2023-07-16T04:08:50;99080.41;;;29.72;43.44
37856;BME280;23694;43.274;26.924;2023-07-16T04:11:16;99084.69;;;29.98;43.25
37856;BME280;23694;43.274;26.924;2023-07-16T04:13:42;99090.84;;;30.23;42.87
37856;BME280;23694;43.274;26.924;2023-07-16T04:16:08;99099.88;;;30.47;42.73
37856;BME280;23694;43.274;26.924;2023-07-16T04:18:34;99091.53;;;30.49;43.26
37856;BME280;23694;43.274;26.924;2023-07-16T04:21:00;99101.69;;;30.05;44.02
37856;BME280;23694;43.274;26.924;2023-07-16T04:23:26;99098.72;;;29.70;45.46
37856;BME280;23694;43.274;26.924;2023-07-16T04:25:53;99091.22;;;29.29;47.55
37856;BME280;23694;43.274;26.924;2023-07-16T04:28:20;99100.13;;;29.73;46.07
37856;BME280;23694;43.274;26.924;2023-07-16T04:30:46;99092.59;;;30.48;43.34
37856;BME280;23694;43.274;26.924;2023-07-16T04:33:12;99092.06;;;30.99;41.12
37856;BME280;23694;43.274;26.924;2023-07-16T04:35:38;99083.88;;;31.64;40.86
37856;BME280;23694;43.274;26.924;2023-07-16T04:38:04;99087.53;;;32.33;39.41
37856;BME280;23694;43.274;26.924;2023-07-16T04:40:30;99102.13;;;33.06;37.62
37856;BME280;23694;43.274;26.924;2023-07-16T04:42:56;99099.94;;;33.36;36.43
37856;BME280;23694;43.274;26.924;2023-07-16T04:45:23;99095.09;;;33.22;36.34
37856;BME280;23694;43.274;26.924;2023-07-16T04:47:49;99099.34;;;33.51;36.54
37856;BME280;23694;43.274;26.924;2023-07-16T04:50:15;99106.56;;;34.01;34.17
37856;BME280;23694;43.274;26.924;2023-07-16T04:52:41;99108.34;;;34.56;33.34
37856;BME280;23694;43.274;26.924;2023-07-16T04:55:07;99097.81;;;34.64;32.47
37856;BME280;23694;43.274;26.924;2023-07-16T04:57:33;99118.09;;;34.52;32.10
37856;BME280;23694;43.274;26.924;2023-07-16T04:59:59;99102.44;;;34.42;32.76
37856;BME280;23694;43.274;26.924;2023-07-16T05:02:26;99098.59;;;34.60;33.59
37856;BME280;23694;43.274;26.924;2023-07-16T05:04:52;99111.94;;;34.40;33.45
37856;BME280;23694;43.274;26.924;2023-07-16T05:07:18;99107.25;;;33.53;35.19
37856;BME280;23694;43.274;26.924;2023-07-16T05:09:44;99087.28;;;32.63;36.55
37856;BME280;23694;43.274;26.924;2023-07-16T05:12:10;99100.00;;;33.25;35.69
37856;BME280;23694;43.274;26.924;2023-07-16T05:14:44;99109.16;;;33.91;34.83
37856;BME280;23694;43.274;26.924;2023-07-16T05:17:12;99124.41;;;34.36;33.20
37856;BME280;23694;43.274;26.924;2023-07-16T05:19:38;99113.84;;;34.88;33.31
37856;BME280;23694;43.274;26.924;2023-07-16T05:22:04;99115.59;;;34.77;32.95
37856;BME280;23694;43.274;26.924;2023-07-16T05:24:32;99123.00;;;33.89;34.12
37856;BME280;23694;43.274;26.924;2023-07-16T05:26:58;99122.69;;;32.85;36.11
37856;BME280;23694;43.274;26.924;2023-07-16T05:29:24;99119.31;;;32.38;37.30
37856;BME280;23694;43.274;26.924;2023-07-16T05:31:50;99123.72;;;32.15;37.83
37856;BME280;23694;43.274;26.924;2023-07-16T05:34:17;99124.94;;;31.61;38.45
37856;BME280;23694;43.274;26.924;2023-07-16T05:36:43;99126.72;;;30.90;39.70
37856;BME280;23694;43.274;26.924;2023-07-16T05:39:12;99122.50;;;30.35;40.98
37856;BME280;23694;43.274;26.924;2023-07-16T05:41:41;99126.00;;;29.80;43.57
37856;BME280;23694;43.274;26.924;2023-07-16T05:44:07;99125.94;;;29.87;43.44
37856;BME280;23694;43.274;26.924;2023-07-16T05:46:34;99123.59;;;29.90;42.08
37856;BME280;23694;43.274;26.924;2023-07-16T05:49:00;99124.63;;;29.96;41.35
37856;BME280;23694;43.274;26.924;2023-07-16T05:51:26;99126.53;;;29.71;42.15
37856;BME280;23694;43.274;26.924;2023-07-16T05:53:52;99125.97;;;29.44;42.54
37856;BME280;23694;43.274;26.924;2023-07-16T05:56:18;99123.06;;;28.44;44.08
37856;BME280;23694;43.274;26.924;2023-07-16T05:58:44;99120.25;;;28.70;44.36
37856;BME280;23694;43.274;26.924;2023-07-16T06:01:10;99129.38;;;28.69;43.90
37856;BME280;23694;43.274;26.924;2023-07-16T06:03:36;99126.53;;;28.96;43.42
37856;BME280;23694;43.274;26.924;2023-07-16T06:06:03;99125.31;;;27.96;42.83
37856;BME280;23694;43.274;26.924;2023-07-16T06:08:29;99123.38;;;28.23;41.64
37856;BME280;23694;43.274;26.924;2023-07-16T06:10:55;99129.13;;;27.22;44.03
37856;BME280;23694;43.274;26.924;2023-07-16T06:13:21;99124.53;;;26.83;44.80
37856;BME280;23694;43.274;26.924;2023-07-16T06:15:47;99123.31;;;27.05;43.59
37856;BME280;23694;43.274;26.924;2023-07-16T06:18:13;99119.59;;;27.06;44.94
37856;BME280;23694;43.274;26.924;2023-07-16T06:20:45;99128.69;;;27.58;44.30
37856;BME280;23694;43.274;26.924;2023-07-16T06:23:12;99126.38;;;26.96;46.42
37856;BME280;23694;43.274;26.924;2023-07-16T06:25:38;99130.31;;;26.80;45.88
37856;BME280;23694;43.274;26.924;2023-07-16T06:28:06;99127.41;;;26.95;44.90
37856;BME280;23694;43.274;26.924;2023-07-16T06:30:32;99126.03;;;27.45;43.50
37856;BME280;23694;43.274;26.924;2023-07-16T06:32:59;99130.72;;;27.83;42.91
37856;BME280;23694;43.274;26.924;2023-07-16T06:35:25;99126.22;;;27.70;43.54
37856;BME280;23694;43.274;26.924;2023-07-16T06:37:51;99127.72;;;28.30;42.47
37856;BME280;23694;43.274;26.924;2023-07-16T06:40:17;99125.81;;;27.46;44.01
37856;BME280;23694;43.274;26.924;2023-07-16T06:42:43;99127.22;;;27.75;43.70
37856;BME280;23694;43.274;26.924;2023-07-16T06:45:10;99130.16;;;27.41;44.74
37856;BME280;23694;43.274;26.924;2023-07-16T06:47:36;99129.66;;;27.90;44.04
37856;BME280;23694;43.274;26.924;2023-07-16T06:50:02;99126.63;;;27.73;44.48
37856;BME280;23694;43.274;26.924;2023-07-16T06:52:28;99122.81;;;28.07;43.73
37856;BME280;23694;43.274;26.924;2023-07-16T06:54:57;99133.44;;;27.56;45.19
37856;BME280;23694;43.274;26.924;2023-07-16T06:57:23;99128.91;;;27.57;44.63
37856;BME280;23694;43.274;26.924;2023-07-16T06:59:49;99126.63;;;27.67;44.27
37856;BME280;23694;43.274;26.924;2023-07-16T07:02:16;99125.09;;;28.04;41.48
37856;BME280;23694;43.274;26.924;2023-07-16T07:04:43;99121.78;;;28.02;41.00
37856;BME280;23694;43.274;26.924;2023-07-16T07:07:09;99126.94;;;28.55;41.08
37856;BME280;23694;43.274;26.924;2023-07-16T07:09:35;99133.03;;;28.82;40.54
37856;BME280;23694;43.274;26.924;2023-07-16T07:12:01;99131.03;;;28.70;39.94
37856;BME280;23694;43.274;26.924;2023-07-16T07:14:27;99126.91;;;28.17;41.34
37856;BME280;23694;43.274;26.924;2023-07-16T07:16:53;99131.66;;;28.21;40.90
37856;BME280;23694;43.274;26.924;2023-07-16T07:19:19;99133.72;;;28.32;39.83
37856;BME280;23694;43.274;26.924;2023-07-16T07:21:45;99130.66;;;28.60;40.05
37856;BME280;23694;43.274;26.924;2023-07-16T07:24:12;99133.91;;;28.76;37.26
37856;BME280;23694;43.274;26.924;2023-07-16T07:26:38;99141.19;;;29.07;38.57
37856;BME280;23694;43.274;26.924;2023-07-16T07:29:04;99142.88;;;29.01;38.15
37856;BME280;23694;43.274;26.924;2023-07-16T07:31:30;99140.47;;;29.18;37.88
37856;BME280;23694;43.274;26.924;2023-07-16T07:33:56;99135.19;;;29.04;38.06
37856;BME280;23694;43.274;26.924;2023-07-16T07:36:25;99138.72;;;28.67;39.01
37856;BME280;23694;43.274;26.924;2023-07-16T07:38:51;99134.66;;;28.51;39.38
37856;BME280;23694;43.274;26.924;2023-07-16T07:41:17;99131.31;;;28.94;38.28
37856;BME280;23694;43.274;26.924;2023-07-16T07:43:43;99140.41;;;29.24;37.18
37856;BME280;23694;43.274;26.924;2023-07-16T07:46:09;99131.63;;;29.60;36.71
37856;BME280;23694;43.274;26.924;2023-07-16T07:48:36;99138.09;;;29.03;37.43
37856;BME280;23694;43.274;26.924;2023-07-16T07:51:02;99129.91;;;29.41;36.59
37856;BME280;23694;43.274;26.924;2023-07-16T07:53:28;99127.50;;;29.33;37.08
37856;BME280;23694;43.274;26.924;2023-07-16T07:55:54;99131.41;;;29.80;36.39
37856;BME280;23694;43.274;26.924;2023-07-16T07:58:20;99131.38;;;28.87;35.94
37856;BME280;23694;43.274;26.924;2023-07-16T08:00:46;99125.59;;;29.09;36.06
37856;BME280;23694;43.274;26.924;2023-07-16T08:03:12;99134.50;;;28.84;36.89
37856;BME280;23694;43.274;26.924;2023-07-16T08:05:38;99127.59;;;29.20;36.59
37856;BME280;23694;43.274;26.924;2023-07-16T08:08:04;99126.53;;;29.71;35.67
37856;BME280;23694;43.274;26.924;2023-07-16T08:10:30;99126.75;;;29.19;35.93
37856;BME280;23694;43.274;26.924;2023-07-16T08:12:56;99124.97;;;29.38;36.05
37856;BME280;23694;43.274;26.924;2023-07-16T08:15:22;99130.41;;;29.56;35.28
37856;BME280;23694;43.274;26.924;2023-07-16T08:17:48;99129.75;;;29.61;35.48
37856;BME280;23694;43.274;26.924;2023-07-16T08:20:14;99126.97;;;29.18;36.53
37856;BME280;23694;43.274;26.924;2023-07-16T08:22:40;99131.41;;;29.62;35.67
37856;BME280;23694;43.274;26.924;2023-07-16T08:25:07;99121.13;;;29.71;36.21
37856;BME280;23694;43.274;26.924;2023-07-16T08:27:34;99129.59;;;29.56;35.97
37856;BME280;23694;43.274;26.924;2023-07-16T08:30:00;99120.84;;;29.97;36.31
37856;BME280;23694;43.274;26.924;2023-07-16T08:32:26;99125.00;;;30.48;35.22
37856;BME280;23694;43.274;26.924;2023-07-16T08:34:52;99133.22;;;30.41;34.98
37856;BME280;23694;43.274;26.924;2023-07-16T08:37:18;99131.44;;;29.98;35.99
37856;BME280;23694;43.274;26.924;2023-07-16T08:39:44;99132.78;;;30.26;34.87
37856;BME280;23694;43.274;26.924;2023-07-16T08:42:10;99122.91;;;30.02;36.19
37856;BME280;23694;43.274;26.924;2023-07-16T08:44:40;99134.91;;;30.24;35.22
37856;BME280;23694;43.274;26.924;2023-07-16T08:47:06;99127.38;;;30.26;35.02
37856;BME280;23694;43.274;26.924;2023-07-16T08:49:34;99122.63;;;30.40;34.70
37856;BME280;23694;43.274;26.924;2023-07-16T08:52:01;99131.72;;;30.64;34.90
37856;BME280;23694;43.274;26.924;2023-07-16T08:54:28;99118.34;;;29.77;36.37
37856;BME280;23694;43.274;26.924;2023-07-16T08:56:54;99119.59;;;30.48;35.92
37856;BME280;23694;43.274;26.924;2023-07-16T08:59:21;99130.25;;;30.91;34.92
37856;BME280;23694;43.274;26.924;2023-07-16T09:01:47;99117.44;;;30.86;34.10
37856;BME280;23694;43.274;26.924;2023-07-16T09:04:17;99125.06;;;30.78;34.83
37856;BME280;23694;43.274;26.924;2023-07-16T09:06:43;99118.25;;;30.09;35.73
37856;BME280;23694;43.274;26.924;2023-07-16T09:09:38;99126.84;;;29.99;35.98
37856;BME280;23694;43.274;26.924;2023-07-16T09:12:05;99115.97;;;30.54;35.26
37856;BME280;23694;43.274;26.924;2023-07-16T09:14:31;99108.69;;;30.73;34.28
37856;BME280;23694;43.274;26.924;2023-07-16T09:16:57;99114.38;;;30.83;34.34
37856;BME280;23694;43.274;26.924;2023-07-16T09:19:25;99096.53;;;31.05;33.51
37856;BME280;23694;43.274;26.924;2023-07-16T09:21:52;99118.91;;;30.71;34.30
37856;BME280;23694;43.274;26.924;2023-07-16T09:24:19;99119.25;;;30.63;34.33
37856;BME280;23694;43.274;26.924;2023-07-16T09:26:49;99110.16;;;30.39;34.60
37856;BME280;23694;43.274;26.924;2023-07-16T09:29:16;99101.75;;;30.65;34.73
37856;BME280;23694;43.274;26.924;2023-07-16T09:31:56;99111.81;;;31.11;34.21
37856;BME280;23694;43.274;26.924;2023-07-16T09:34:22;99099.00;;;31.07;33.65
37856;BME280;23694;43.274;26.924;2023-07-16T09:36:49;99093.06;;;31.51;32.65
37856;BME280;23694;43.274;26.924;2023-07-16T09:39:19;99094.00;;;31.92;31.90
37856;BME280;23694;43.274;26.924;2023-07-16T09:41:49;99102.72;;;31.71;33.12
37856;BME280;23694;43.274;26.924;2023-07-16T09:44:16;99093.06;;;31.28;33.13
37856;BME280;23694;43.274;26.924;2023-07-16T09:46:43;99102.47;;;30.72;33.67
37856;BME280;23694;43.274;26.924;2023-07-16T09:49:10;99087.41;;;31.18;33.74
37856;BME280;23694;43.274;26.924;2023-07-16T09:51:37;99088.00;;;31.55;33.49
37856;BME280;23694;43.274;26.924;2023-07-16T09:54:05;99089.75;;;31.84;31.33
37856;BME280;23694;43.274;26.924;2023-07-16T09:56:47;99071.53;;;31.33;32.08
37856;BME280;23694;43.274;26.924;2023-07-16T09:59:20;99086.16;;;30.90;31.81
37856;BME280;23694;43.274;26.924;2023-07-16T10:01:49;99069.19;;;31.48;32.11
37856;BME280;23694;43.274;26.924;2023-07-16T10:04:18;99086.28;;;32.12;30.26
37856;BME280;23694;43.274;26.924;2023-07-16T10:06:55;99075.34;;;31.02;32.21
37856;BME280;23694;43.274;26.924;2023-07-16T10:12:20;99074.22;;;31.92;31.17
37856;BME280;23694;43.274;26.924;2023-07-16T10:14:47;99076.00;;;32.14;30.46
37856;BME280;23694;43.274;26.924;2023-07-16T10:17:20;99069.78;;;32.14;30.43
37856;BME280;23694;43.274;26.924;2023-07-16T10:19:55;99068.22;;;31.78;30.50
37856;BME280;23694;43.274;26.924;2023-07-16T10:22:38;99073.22;;;32.09;29.76
37856;BME280;23694;43.274;26.924;2023-07-16T10:27:34;99060.13;;;31.31;31.00
37856;BME280;23694;43.274;26.924;2023-07-16T10:30:03;99064.31;;;31.85;30.45
37856;BME280;23694;43.274;26.924;2023-07-16T10:32:31;99065.06;;;32.09;29.99
37856;BME280;23694;43.274;26.924;2023-07-16T10:34:58;99062.78;;;31.78;30.02
37856;BME280;23694;43.274;26.924;2023-07-16T10:37:24;99060.47;;;32.10;29.24
37856;BME280;23694;43.274;26.924;2023-07-16T10:39:52;99065.75;;;31.88;29.48
37856;BME280;23694;43.274;26.924;2023-07-16T10:42:20;99055.00;;;32.22;28.80
37856;BME280;23694;43.274;26.924;2023-07-16T10:44:50;99057.38;;;32.30;29.38
37856;BME280;23694;43.274;26.924;2023-07-16T10:47:19;99055.09;;;32.38;29.35
37856;BME280;23694;43.274;26.924;2023-07-16T10:49:47;99052.28;;;31.93;29.42
37856;BME280;23694;43.274;26.924;2023-07-16T10:52:13;99045.06;;;32.10;29.23
37856;BME280;23694;43.274;26.924;2023-07-16T10:54:40;99042.16;;;32.00;29.48
37856;BME280;23694;43.274;26.924;2023-07-16T10:57:06;99039.19;;;32.59;28.63
37856;BME280;23694;43.274;26.924;2023-07-16T10:59:32;99040.63;;;31.93;29.02
37856;BME280;23694;43.274;26.924;2023-07-16T11:01:58;99038.72;;;32.33;28.90
37856;BME280;23694;43.274;26.924;2023-07-16T11:04:24;99034.53;;;32.26;28.66
37856;BME280;23694;43.274;26.924;2023-07-16T11:06:50;99031.25;;;32.12;28.91
37856;BME280;23694;43.274;26.924;2023-07-16T11:09:17;99041.28;;;32.40;27.70
37856;BME280;23694;43.274;26.924;2023-07-16T11:11:43;99025.59;;;32.42;27.10
37856;BME280;23694;43.274;26.924;2023-07-16T11:14:09;99030.78;;;32.43;27.14
37856;BME280;23694;43.274;26.924;2023-07-16T11:16:36;99020.84;;;32.77;27.22
37856;BME280;23694;43.274;26.924;2023-07-16T11:19:04;99030.34;;;32.97;26.34
37856;BME280;23694;43.274;26.924;2023-07-16T11:21:33;99021.78;;;33.38;26.54
37856;BME280;23694;43.274;26.924;2023-07-16T11:24:09;99020.50;;;32.91;26.90
37856;BME280;23694;43.274;26.924;2023-07-16T11:26:35;99020.91;;;33.55;26.29
37856;BME280;23694;43.274;26.924;2023-07-16T11:29:12;99022.94;;;33.64;25.87
37856;BME280;23694;43.274;26.924;2023-07-16T11:31:39;99012.19;;;33.53;26.10
37856;BME280;23694;43.274;26.924;2023-07-16T11:34:06;99030.44;;;32.40;27.35
37856;BME280;23694;43.274;26.924;2023-07-16T11:36:33;99026.66;;;32.12;27.08
37856;BME280;23694;43.274;26.924;2023-07-16T11:39:02;99022.47;;;32.50;27.04
37856;BME280;23694;43.274;26.924;2023-07-16T11:41:28;99015.88;;;33.25;26.54
37856;BME280;23694;43.274;26.924;2023-07-16T11:43:59;99023.75;;;33.82;25.20
37856;BME280;23694;43.274;26.924;2023-07-16T11:46:25;99020.31;;;33.91;24.72
37856;BME280;23694;43.274;26.924;2023-07-16T11:48:56;99012.94;;;33.70;24.57
37856;BME280;23694;43.274;26.924;2023-07-16T11:51:22;99021.97;;;33.92;24.43
37856;BME280;23694;43.274;26.924;2023-07-16T11:53:48;99011.31;;;33.69;24.63
37856;BME280;23694;43.274;26.924;2023-07-16T11:56:14;99014.44;;;33.99;23.83
37856;BME280;23694;43.274;26.924;2023-07-16T11:58:40;99009.06;;;34.05;23.53
37856;BME280;23694;43.274;26.924;2023-07-16T12:01:06;99000.72;;;33.12;24.63
37856;BME280;23694;43.274;26.924;2023-07-16T12:03:33;99020.72;;;33.61;24.61
37856;BME280;23694;43.274;26.924;2023-07-16T12:05:59;99011.44;;;33.57;24.15
37856;BME280;23694;43.274;26.924;2023-07-16T12:08:25;99008.78;;;33.07;24.44
37856;BME280;23694;43.274;26.924;2023-07-16T12:10:51;99004.09;;;33.36;24.26
37856;BME280;23694;43.274;26.924;2023-07-16T12:13:18;99000.47;;;33.14;24.35
37856;BME280;23694;43.274;26.924;2023-07-16T12:15:44;98994.91;;;33.59;24.39
37856;BME280;23694;43.274;26.924;2023-07-16T12:18:10;99002.81;;;34.04;24.06
37856;BME280;23694;43.274;26.924;2023-07-16T12:20:36;99003.97;;;34.13;23.58
37856;BME280;23694;43.274;26.924;2023-07-16T12:23:02;99004.13;;;34.01;23.07
37856;BME280;23694;43.274;26.924;2023-07-16T12:25:31;98993.06;;;33.64;23.71
37856;BME280;23694;43.274;26.924;2023-07-16T12:27:57;99000.44;;;33.69;23.43
37856;BME280;23694;43.274;26.924;2023-07-16T12:30:26;98994.28;;;33.95;23.30
37856;BME280;23694;43.274;26.924;2023-07-16T12:32:52;98995.97;;;34.28;23.77
37856;BME280;23694;43.274;26.924;2023-07-16T12:35:18;99000.75;;;34.43;22.96
37856;BME280;23694;43.274;26.924;2023-07-16T12:37:44;98997.28;;;34.48;22.58
37856;BME280;23694;43.274;26.924;2023-07-16T12:40:10;98983.81;;;34.63;22.87
37856;BME280;23694;43.274;26.924;2023-07-16T12:42:37;98987.38;;;34.37;22.91
37856;BME280;23694;43.274;26.924;2023-07-16T12:45:03;98994.50;;;34.43;23.75
37856;BME280;23694;43.274;26.924;2023-07-16T12:47:29;98991.34;;;34.29;23.00
37856;BME280;23694;43.274;26.924;2023-07-16T12:49:55;98999.84;;;34.32;23.59
37856;BME280;23694;43.274;26.924;2023-07-16T12:52:22;99002.28;;;34.07;23.33
37856;BME280;23694;43.274;26.924;2023-07-16T12:54:48;98994.66;;;34.04;23.51
37856;BME280;23694;43.274;26.924;2023-07-16T12:57:14;98982.22;;;33.26;24.38
37856;BME280;23694;43.274;26.924;2023-07-16T12:59:40;98988.81;;;33.30;24.22
37856;BME280;23694;43.274;26.924;2023-07-16T13:02:06;98990.03;;;33.61;24.64
37856;BME280;23694;43.274;26.924;2023-07-16T13:04:32;98990.50;;;34.23;23.62